sensor_id;sensor_type;location;lat;lon;timestamp;pressure;altitude;pressure_sealevel;temperature;humidity
21433;BME280;18592;49.708;10.900;2023-01-24T00:01:27;100260.50;;;6.54;55.46
21433;BME280;18592;49.708;10.900;2023-01-24T00:03:29;100260.34;;;6.55;55.39
21433;BME280;18592;49.708;10.900;2023-01-24T00:05:33;100256.94;;;6.53;55.20
21433;BME280;18592;49.708;10.900;2023-01-24T00:07:35;100256.78;;;6.55;55.24
21433;BME280;18592;49.708;10.900;2023-01-24T00:09:36;100257.63;;;6.55;55.47
21433;BME280;18592;49.708;10.900;2023-01-24T00:11:38;100264.91;;;6.55;55.46
21433;BME280;18592;49.708;10.900;2023-01-24T00:13:42;100256.94;;;6.53;55.05
21433;BME280;18592;49.708;10.900;2023-01-24T00:15:44;100256.94;;;6.53;55.12
21433;BME280;18592;49.708;10.900;2023-01-24T00:17:46;100269.66;;;6.53;55.58
21433;BME280;18592;49.708;10.900;2023-01-24T00:19:48;100264.06;;;6.54;55.16
21433;BME280;18592;49.708;10.900;2023-01-24T00:21:49;100261.53;;;6.53;55.49
21433;BME280;18592;49.708;10.900;2023-01-24T00:23:52;100259.66;;;6.53;55.28
21433;BME280;18592;49.708;10.900;2023-01-24T00:25:54;100264.06;;;6.54;55.39
21433;BME280;18592;49.708;10.900;2023-01-24T00:27:56;100266.97;;;6.53;55.32
21433;BME280;18592;49.708;10.900;2023-01-24T00:30:02;100264.25;;;6.53;55.39
21433;BME280;18592;49.708;10.900;2023-01-24T00:32:08;100268.16;;;6.50;55.50
21433;BME280;18592;49.708;10.900;2023-01-24T00:34:10;100271.53;;;6.52;55.47
21433;BME280;18592;49.708;10.900;2023-01-24T00:36:12;100271.53;;;6.52;55.48
21433;BME280;18592;49.708;10.900;2023-01-24T00:38:14;100273.19;;;6.53;55.39
21433;BME280;18592;49.708;10.900;2023-01-24T00:40:16;100277.59;;;6.54;55.44
21433;BME280;18592;49.708;10.900;2023-01-24T00:42:18;100270.97;;;6.57;55.29
21433;BME280;18592;49.708;10.900;2023-01-24T00:44:20;100269.13;;;6.57;55.35
21433;BME280;18592;49.708;10.900;2023-01-24T00:46:24;100276.19;;;6.58;55.38
21433;BME280;18592;49.708;10.900;2023-01-24T00:48:26;100270.78;;;6.58;55.31
21433;BME280;18592;49.708;10.900;2023-01-24T00:50:28;100271.81;;;6.57;55.54
21433;BME280;18592;49.708;10.900;2023-01-24T00:52:29;100281.63;;;6.58;55.69
21433;BME280;18592;49.708;10.900;2023-01-24T00:54:31;100278.75;;;6.60;55.45
21433;BME280;18592;49.708;10.900;2023-01-24T00:56:33;100288.53;;;6.61;55.53
21433;BME280;18592;49.708;10.900;2023-01-24T00:58:35;100286.69;;;6.61;55.50
21433;BME280;18592;49.708;10.900;2023-01-24T01:00:37;100287.53;;;6.62;55.31
21433;BME280;18592;49.708;10.900;2023-01-24T01:02:40;100282.09;;;6.62;55.16
21433;BME280;18592;49.708;10.900;2023-01-24T01:04:45;100282.97;;;6.62;55.26
21433;BME280;18592;49.708;10.900;2023-01-24T01:06:46;100284.63;;;6.63;55.21
21433;BME280;18592;49.708;10.900;2023-01-24T01:08:51;100282.97;;;6.62;55.54
21433;BME280;18592;49.708;10.900;2023-01-24T01:10:53;100285.00;;;6.60;55.44
21433;BME280;18592;49.708;10.900;2023-01-24T01:12:56;100297.50;;;6.61;55.52
21433;BME280;18592;49.708;10.900;2023-01-24T01:14:58;100301.91;;;6.62;55.36
21433;BME280;18592;49.708;10.900;2023-01-24T01:16:59;100303.78;;;6.62;55.18
21433;BME280;18592;49.708;10.900;2023-01-24T01:19:01;100303.78;;;6.62;55.28
21433;BME280;18592;49.708;10.900;2023-01-24T01:21:04;100303.78;;;6.62;55.14
21433;BME280;18592;49.708;10.900;2023-01-24T01:23:06;100301.28;;;6.60;55.38
21433;BME280;18592;49.708;10.900;2023-01-24T01:25:09;100310.03;;;6.62;55.08
21433;BME280;18592;49.708;10.900;2023-01-24T01:27:11;100310.91;;;6.63;55.03
21433;BME280;18592;49.708;10.900;2023-01-24T01:29:13;100311.06;;;6.61;55.19
21433;BME280;18592;49.708;10.900;2023-01-24T01:31:15;100309.41;;;6.60;55.53
21433;BME280;18592;49.708;10.900;2023-01-24T01:33:19;100312.91;;;6.61;55.15
21433;BME280;18592;49.708;10.900;2023-01-24T01:35:20;100312.09;;;6.60;55.39
21433;BME280;18592;49.708;10.900;2023-01-24T01:37:23;100310.41;;;6.59;55.12
21433;BME280;18592;49.708;10.900;2023-01-24T01:39:26;100306.69;;;6.60;55.16
21433;BME280;18592;49.708;10.900;2023-01-24T01:41:28;100314.81;;;6.60;55.24
21433;BME280;18592;49.708;10.900;2023-01-24T01:43:30;100316.47;;;6.61;55.23
21433;BME280;18592;49.708;10.900;2023-01-24T01:47:35;100315.81;;;6.59;55.24
21433;BME280;18592;49.708;10.900;2023-01-24T01:49:38;100314.13;;;6.58;55.10
21433;BME280;18592;49.708;10.900;2023-01-24T01:51:45;100318.72;;;6.58;55.44
21433;BME280;18592;49.708;10.900;2023-01-24T01:53:54;100323.31;;;6.57;55.55
21433;BME280;18592;49.708;10.900;2023-01-24T01:56:04;100324.16;;;6.58;55.28
21433;BME280;18592;49.708;10.900;2023-01-24T01:58:08;100328.72;;;6.57;55.39
21433;BME280;18592;49.708;10.900;2023-01-24T02:00:17;100324.31;;;6.56;55.18
21433;BME280;18592;49.708;10.900;2023-01-24T02:02:21;100327.88;;;6.57;55.22
21433;BME280;18592;49.708;10.900;2023-01-24T02:04:28;100327.22;;;6.55;55.26
21433;BME280;18592;49.708;10.900;2023-01-24T02:06:52;100338.22;;;6.53;55.23
21433;BME280;18592;49.708;10.900;2023-01-24T02:08:59;100338.41;;;6.52;55.08
21433;BME280;18592;49.708;10.900;2023-01-24T02:11:02;100340.28;;;6.51;55.41
21433;BME280;18592;49.708;10.900;2023-01-24T02:13:23;100339.63;;;6.49;55.30
21433;BME280;18592;49.708;10.900;2023-01-24T02:15:25;100338.59;;;6.50;55.28
21433;BME280;18592;49.708;10.900;2023-01-24T02:17:45;100344.19;;;6.49;55.29
21433;BME280;18592;49.708;10.900;2023-01-24T02:20:09;100336.25;;;6.47;55.17
21433;BME280;18592;49.708;10.900;2023-01-24T02:24:40;100334.25;;;6.41;55.59
21433;BME280;18592;49.708;10.900;2023-01-24T02:26:45;100341.38;;;6.42;55.74
21433;BME280;18592;49.708;10.900;2023-01-24T02:28:59;100347.59;;;6.43;55.69
21433;BME280;18592;49.708;10.900;2023-01-24T02:31:03;100347.59;;;6.43;55.42
21433;BME280;18592;49.708;10.900;2023-01-24T02:33:15;100346.09;;;6.40;55.44
21433;BME280;18592;49.708;10.900;2023-01-24T02:35:25;100342.38;;;6.41;55.30
21433;BME280;18592;49.708;10.900;2023-01-24T02:37:27;100342.19;;;6.43;55.37
21433;BME280;18592;49.708;10.900;2023-01-24T02:39:35;100343.03;;;6.43;55.40
21433;BME280;18592;49.708;10.900;2023-01-24T02:41:46;100344.72;;;6.44;55.46
21433;BME280;18592;49.708;10.900;2023-01-24T02:43:49;100341.19;;;6.44;55.67
21433;BME280;18592;49.708;10.900;2023-01-24T02:45:54;100340.31;;;6.43;55.44
21433;BME280;18592;49.708;10.900;2023-01-24T02:47:56;100342.69;;;6.46;55.42
21433;BME280;18592;49.708;10.900;2023-01-24T02:49:59;100337.47;;;6.45;55.32
21433;BME280;18592;49.708;10.900;2023-01-24T02:52:01;100338.47;;;6.44;55.66
21433;BME280;18592;49.708;10.900;2023-01-24T02:54:21;100342.03;;;6.44;55.44
21433;BME280;18592;49.708;10.900;2023-01-24T02:56:23;100333.03;;;6.44;55.53
21433;BME280;18592;49.708;10.900;2023-01-24T02:58:44;100330.53;;;6.42;55.61
21433;BME280;18592;49.708;10.900;2023-01-24T03:00:46;100341.19;;;6.44;55.30
21433;BME280;18592;49.708;10.900;2023-01-24T03:02:49;100335.75;;;6.44;55.56
21433;BME280;18592;49.708;10.900;2023-01-24T03:04:51;100342.03;;;6.44;55.69
21433;BME280;18592;49.708;10.900;2023-01-24T03:06:53;100340.31;;;6.43;55.61
21433;BME280;18592;49.708;10.900;2023-01-24T03:08:54;100336.59;;;6.44;55.52
21433;BME280;18592;49.708;10.900;2023-01-24T03:11:03;100342.03;;;6.44;55.36
21433;BME280;18592;49.708;10.900;2023-01-24T03:13:06;100346.44;;;6.45;55.23
21433;BME280;18592;49.708;10.900;2023-01-24T03:15:26;100344.72;;;6.44;55.11
21433;BME280;18592;49.708;10.900;2023-01-24T03:17:47;100339.31;;;6.44;55.54
21433;BME280;18592;49.708;10.900;2023-01-24T03:20:07;100336.59;;;6.44;55.37
21433;BME280;18592;49.708;10.900;2023-01-24T03:22:28;100348.44;;;6.43;55.43
21433;BME280;18592;49.708;10.900;2023-01-24T03:24:52;100348.44;;;6.43;55.53
21433;BME280;18592;49.708;10.900;2023-01-24T03:27:13;100343.03;;;6.43;55.67
21433;BME280;18592;49.708;10.900;2023-01-24T03:29:34;100340.31;;;6.43;55.14
21433;BME280;18592;49.708;10.900;2023-01-24T03:31:55;100337.97;;;6.40;55.58
21433;BME280;18592;49.708;10.900;2023-01-24T03:34:15;100345.09;;;6.41;55.42
21433;BME280;18592;49.708;10.900;2023-01-24T03:36:49;100346.09;;;6.40;55.43
21433;BME280;18592;49.708;10.900;2023-01-24T03:38:51;100331.91;;;6.38;55.80
21433;BME280;18592;49.708;10.900;2023-01-24T03:41:11;100334.97;;;6.35;55.87
21433;BME280;18592;49.708;10.900;2023-01-24T03:43:15;100328.88;;;6.33;55.62
21433;BME280;18592;49.708;10.900;2023-01-24T03:45:31;100336.16;;;6.32;55.42
21433;BME280;18592;49.708;10.900;2023-01-24T03:47:34;100327.03;;;6.33;55.53
21433;BME280;18592;49.708;10.900;2023-01-24T03:49:36;100329.53;;;6.35;55.29
21433;BME280;18592;49.708;10.900;2023-01-24T03:51:56;100329.53;;;6.35;55.56
21433;BME280;18592;49.708;10.900;2023-01-24T03:54:17;100316.84;;;6.35;55.51
21433;BME280;18592;49.708;10.900;2023-01-24T03:56:40;100326.84;;;6.35;55.55
21433;BME280;18592;49.708;10.900;2023-01-24T03:58:42;100325.81;;;6.36;55.55
21433;BME280;18592;49.708;10.900;2023-01-24T04:00:47;100324.13;;;6.35;55.57
21433;BME280;18592;49.708;10.900;2023-01-24T04:03:12;100329.53;;;6.35;55.43
21433;BME280;18592;49.708;10.900;2023-01-24T04:05:16;100323.97;;;6.36;55.60
21433;BME280;18592;49.708;10.900;2023-01-24T04:07:19;100333.28;;;6.34;55.49
21433;BME280;18592;49.708;10.900;2023-01-24T04:09:32;100328.53;;;6.36;55.77
21433;BME280;18592;49.708;10.900;2023-01-24T04:11:34;100325.81;;;6.36;55.46
21433;BME280;18592;49.708;10.900;2023-01-24T04:13:46;100324.81;;;6.37;55.79
21433;BME280;18592;49.708;10.900;2023-01-24T04:15:50;100317.69;;;6.36;55.83
21433;BME280;18592;49.708;10.900;2023-01-24T04:18:16;100326.69;;;6.36;55.35
21433;BME280;18592;49.708;10.900;2023-01-24T04:20:20;100318.34;;;6.38;55.62
21433;BME280;18592;49.708;10.900;2023-01-24T04:22:25;100320.22;;;6.37;55.67
21433;BME280;18592;49.708;10.900;2023-01-24T04:24:29;100314.63;;;6.39;55.63
21433;BME280;18592;49.708;10.900;2023-01-24T04:26:31;100315.50;;;6.39;55.64
21433;BME280;18592;49.708;10.900;2023-01-24T04:28:39;100325.47;;;6.39;55.79
21433;BME280;18592;49.708;10.900;2023-01-24T04:30:43;100316.16;;;6.42;55.84
21433;BME280;18592;49.708;10.900;2023-01-24T04:33:00;100318.84;;;6.42;55.45
21433;BME280;18592;49.708;10.900;2023-01-24T04:35:02;100320.72;;;6.41;55.52
21433;BME280;18592;49.708;10.900;2023-01-24T04:37:20;100325.13;;;6.42;55.84
21433;BME280;18592;49.708;10.900;2023-01-24T04:39:22;100328.63;;;6.43;55.78
21433;BME280;18592;49.708;10.900;2023-01-24T04:41:34;100321.38;;;6.43;55.61
21433;BME280;18592;49.708;10.900;2023-01-24T04:43:36;100323.22;;;6.43;55.43
21433;BME280;18592;49.708;10.900;2023-01-24T04:45:39;100320.34;;;6.44;55.58
21433;BME280;18592;49.708;10.900;2023-01-24T04:47:48;100321.38;;;6.43;55.62
21433;BME280;18592;49.708;10.900;2023-01-24T04:49:50;100314.09;;;6.44;55.53
21433;BME280;18592;49.708;10.900;2023-01-24T04:51:53;100319.50;;;6.44;55.43
21433;BME280;18592;49.708;10.900;2023-01-24T04:54:00;100323.91;;;6.45;55.49
21433;BME280;18592;49.708;10.900;2023-01-24T04:56:05;100313.06;;;6.45;55.77
21433;BME280;18592;49.708;10.900;2023-01-24T04:58:11;100316.78;;;6.44;55.61
21433;BME280;18592;49.708;10.900;2023-01-24T05:00:13;100318.50;;;6.45;55.63
21433;BME280;18592;49.708;10.900;2023-01-24T05:02:16;100322.22;;;6.44;55.91
21433;BME280;18592;49.708;10.900;2023-01-24T05:04:19;100320.84;;;6.48;55.71
21433;BME280;18592;49.708;10.900;2023-01-24T05:06:21;100320.66;;;6.49;55.49
21433;BME280;18592;49.708;10.900;2023-01-24T05:08:23;100326.91;;;6.50;55.46
21433;BME280;18592;49.708;10.900;2023-01-24T05:10:24;100330.63;;;6.49;55.67
21433;BME280;18592;49.708;10.900;2023-01-24T05:12:27;100333.34;;;6.49;55.84
21433;BME280;18592;49.708;10.900;2023-01-24T05:14:32;100334.38;;;6.48;55.51
21433;BME280;18592;49.708;10.900;2023-01-24T05:16:34;100334.19;;;6.49;55.64
21433;BME280;18592;49.708;10.900;2023-01-24T05:18:37;100340.63;;;6.48;55.94
21433;BME280;18592;49.708;10.900;2023-01-24T05:20:39;100336.91;;;6.49;55.68
21433;BME280;18592;49.708;10.900;2023-01-24T05:22:44;100332.16;;;6.51;55.48
21433;BME280;18592;49.708;10.900;2023-01-24T05:24:50;100341.31;;;6.50;55.69
21433;BME280;18592;49.708;10.900;2023-01-24T05:26:51;100339.41;;;6.51;55.62
21433;BME280;18592;49.708;10.900;2023-01-24T05:28:57;100330.28;;;6.52;55.60
21433;BME280;18592;49.708;10.900;2023-01-24T05:31:02;100338.41;;;6.52;55.71
21433;BME280;18592;49.708;10.900;2023-01-24T05:33:05;100336.56;;;6.52;55.71
21433;BME280;18592;49.708;10.900;2023-01-24T05:35:08;100344.69;;;6.52;55.72
21433;BME280;18592;49.708;10.900;2023-01-24T05:37:12;100343.81;;;6.52;55.93
21433;BME280;18592;49.708;10.900;2023-01-24T05:39:17;100345.69;;;6.51;55.63
21433;BME280;18592;49.708;10.900;2023-01-24T05:41:28;100345.53;;;6.53;55.67
21433;BME280;18592;49.708;10.900;2023-01-24T05:43:30;100344.47;;;6.54;55.90
21433;BME280;18592;49.708;10.900;2023-01-24T05:45:32;100346.00;;;6.56;55.73
21433;BME280;18592;49.708;10.900;2023-01-24T05:47:38;100345.13;;;6.56;55.85
21433;BME280;18592;49.708;10.900;2023-01-24T05:49:44;100350.41;;;6.57;55.66
21433;BME280;18592;49.708;10.900;2023-01-24T05:51:46;100352.25;;;6.57;55.70
21433;BME280;18592;49.708;10.900;2023-01-24T05:53:53;100351.25;;;6.58;55.54
21433;BME280;18592;49.708;10.900;2023-01-24T05:56:19;100351.03;;;6.59;55.71
21433;BME280;18592;49.708;10.900;2023-01-24T05:58:22;100361.03;;;6.59;55.72
21433;BME280;18592;49.708;10.900;2023-01-24T06:00:38;100353.75;;;6.59;55.40
21433;BME280;18592;49.708;10.900;2023-01-24T06:03:02;100354.59;;;6.60;55.86
21433;BME280;18592;49.708;10.900;2023-01-24T06:05:05;100360.88;;;6.60;55.52
21433;BME280;18592;49.708;10.900;2023-01-24T06:07:07;100360.88;;;6.60;55.72
21433;BME280;18592;49.708;10.900;2023-01-24T06:09:09;100362.53;;;6.61;55.41
21433;BME280;18592;49.708;10.900;2023-01-24T06:13:16;100368.81;;;6.62;55.69
21433;BME280;18592;49.708;10.900;2023-01-24T06:15:22;100360.47;;;6.63;55.71
21433;BME280;18592;49.708;10.900;2023-01-24T06:17:25;100366.75;;;6.64;55.76
21433;BME280;18592;49.708;10.900;2023-01-24T06:19:27;100367.59;;;6.64;55.69
21433;BME280;18592;49.708;10.900;2023-01-24T06:23:49;100371.16;;;6.65;55.72
21433;BME280;18592;49.708;10.900;2023-01-24T06:25:53;100372.16;;;6.64;55.67
21433;BME280;18592;49.708;10.900;2023-01-24T06:27:55;100377.44;;;6.65;55.71
21433;BME280;18592;49.708;10.900;2023-01-24T06:30:08;100377.22;;;6.67;55.59
21433;BME280;18592;49.708;10.900;2023-01-24T06:37:02;100381.81;;;6.66;55.60
21433;BME280;18592;49.708;10.900;2023-01-24T06:39:14;100387.22;;;6.66;55.74
21433;BME280;18592;49.708;10.900;2023-01-24T06:41:17;100386.22;;;6.67;55.87
21433;BME280;18592;49.708;10.900;2023-01-24T06:43:18;100389.78;;;6.68;55.63
21433;BME280;18592;49.708;10.900;2023-01-24T06:45:21;100388.94;;;6.67;55.65
21433;BME280;18592;49.708;10.900;2023-01-24T06:47:23;100389.78;;;6.68;55.41
21433;BME280;18592;49.708;10.900;2023-01-24T06:49:29;100387.22;;;6.66;55.57
21433;BME280;18592;49.708;10.900;2023-01-24T06:51:30;100396.19;;;6.67;55.60
21433;BME280;18592;49.708;10.900;2023-01-24T06:53:32;100393.31;;;6.68;55.53
21433;BME280;18592;49.708;10.900;2023-01-24T06:55:35;100388.94;;;6.67;55.53
21433;BME280;18592;49.708;10.900;2023-01-24T06:57:37;100402.28;;;6.69;55.57
21433;BME280;18592;49.708;10.900;2023-01-24T06:59:38;100401.44;;;6.68;55.38
21433;BME280;18592;49.708;10.900;2023-01-24T07:01:41;100395.00;;;6.69;55.38
21433;BME280;18592;49.708;10.900;2023-01-24T07:03:43;100396.00;;;6.68;55.56
21433;BME280;18592;49.708;10.900;2023-01-24T07:05:45;100397.72;;;6.69;55.58
21433;BME280;18592;49.708;10.900;2023-01-24T07:07:48;100397.72;;;6.69;55.77
21433;BME280;18592;49.708;10.900;2023-01-24T07:09:50;100401.44;;;6.68;55.64
21433;BME280;18592;49.708;10.900;2023-01-24T07:11:53;100396.00;;;6.68;55.50
21433;BME280;18592;49.708;10.900;2023-01-24T07:13:57;100396.84;;;6.69;55.81
21433;BME280;18592;49.708;10.900;2023-01-24T07:16:02;100401.44;;;6.68;55.72
21433;BME280;18592;49.708;10.900;2023-01-24T07:18:09;100402.28;;;6.69;55.54
21433;BME280;18592;49.708;10.900;2023-01-24T07:20:12;100406.84;;;6.68;55.46
21433;BME280;18592;49.708;10.900;2023-01-24T07:22:15;100406.03;;;6.68;55.90
21433;BME280;18592;49.708;10.900;2023-01-24T07:24:19;100407.91;;;6.67;55.70
21433;BME280;18592;49.708;10.900;2023-01-24T07:26:21;100407.03;;;6.67;55.72
21433;BME280;18592;49.708;10.900;2023-01-24T07:28:25;100408.75;;;6.68;55.60
21433;BME280;18592;49.708;10.900;2023-01-24T07:30:26;100418.53;;;6.69;55.73
21433;BME280;18592;49.708;10.900;2023-01-24T07:32:29;100416.03;;;6.67;55.72
21433;BME280;18592;49.708;10.900;2023-01-24T07:34:31;100417.69;;;6.68;55.68
21433;BME280;18592;49.708;10.900;2023-01-24T07:36:36;100425.00;;;6.68;55.57
21433;BME280;18592;49.708;10.900;2023-01-24T07:38:39;100425.00;;;6.68;55.65
21433;BME280;18592;49.708;10.900;2023-01-24T07:40:43;100427.31;;;6.71;55.61
21433;BME280;18592;49.708;10.900;2023-01-24T07:42:48;100427.31;;;6.71;55.64
21433;BME280;18592;49.708;10.900;2023-01-24T07:44:50;100429.22;;;6.70;55.71
21433;BME280;18592;49.708;10.900;2023-01-24T07:46:52;100429.88;;;6.72;55.61
21433;BME280;18592;49.708;10.900;2023-01-24T07:48:54;100434.63;;;6.70;55.71
21433;BME280;18592;49.708;10.900;2023-01-24T07:50:59;100436.50;;;6.70;55.45
21433;BME280;18592;49.708;10.900;2023-01-24T07:53:02;100441.72;;;6.71;55.73
21433;BME280;18592;49.708;10.900;2023-01-24T07:55:04;100441.91;;;6.70;55.79
21433;BME280;18592;49.708;10.900;2023-01-24T07:57:06;100436.50;;;6.70;55.85
21433;BME280;18592;49.708;10.900;2023-01-24T07:59:09;100445.47;;;6.70;55.56
21433;BME280;18592;49.708;10.900;2023-01-24T08:01:18;100446.28;;;6.71;55.72
21433;BME280;18592;49.708;10.900;2023-01-24T08:03:20;100438.16;;;6.71;55.71
21433;BME280;18592;49.708;10.900;2023-01-24T08:05:24;100453.59;;;6.70;55.66
21433;BME280;18592;49.708;10.900;2023-01-24T08:07:25;100454.44;;;6.71;55.92
21433;BME280;18592;49.708;10.900;2023-01-24T08:09:28;100446.13;;;6.72;55.73
21433;BME280;18592;49.708;10.900;2023-01-24T08:11:30;100457.97;;;6.71;56.24
21433;BME280;18592;49.708;10.900;2023-01-24T08:13:32;100455.28;;;6.71;56.03
21433;BME280;18592;49.708;10.900;2023-01-24T08:15:34;100457.97;;;6.71;56.04
21433;BME280;18592;49.708;10.900;2023-01-24T08:17:37;100463.25;;;6.73;55.85
21433;BME280;18592;49.708;10.900;2023-01-24T08:19:43;100455.13;;;6.73;55.71
21433;BME280;18592;49.708;10.900;2023-01-24T08:22:01;100462.41;;;6.72;55.79
21433;BME280;18592;49.708;10.900;2023-01-24T08:24:03;100464.91;;;6.74;55.89
21433;BME280;18592;49.708;10.900;2023-01-24T08:26:04;100465.09;;;6.72;56.00
21433;BME280;18592;49.708;10.900;2023-01-24T08:28:07;100465.09;;;6.72;55.65
21433;BME280;18592;49.708;10.900;2023-01-24T08:30:09;100468.47;;;6.74;55.73
21433;BME280;18592;49.708;10.900;2023-01-24T08:32:16;100468.66;;;6.73;55.76
21433;BME280;18592;49.708;10.900;2023-01-24T08:34:18;100462.41;;;6.72;55.66
21433;BME280;18592;49.708;10.900;2023-01-24T08:36:19;100456.97;;;6.72;55.96
21433;BME280;18592;49.708;10.900;2023-01-24T08:38:24;100466.63;;;6.75;55.85
21433;BME280;18592;49.708;10.900;2023-01-24T08:40:26;100464.91;;;6.74;55.92
21433;BME280;18592;49.708;10.900;2023-01-24T08:42:37;100469.97;;;6.77;55.89
21433;BME280;18592;49.708;10.900;2023-01-24T08:44:39;100469.97;;;6.77;55.95
21433;BME280;18592;49.708;10.900;2023-01-24T08:46:42;100471.69;;;6.78;55.86
21433;BME280;18592;49.708;10.900;2023-01-24T08:48:43;100472.50;;;6.78;55.94
21433;BME280;18592;49.708;10.900;2023-01-24T08:50:45;100473.53;;;6.77;56.09
21433;BME280;18592;49.708;10.900;2023-01-24T08:52:48;100476.91;;;6.79;56.10
21433;BME280;18592;49.708;10.900;2023-01-24T08:54:50;100475.91;;;6.80;56.33
21433;BME280;18592;49.708;10.900;2023-01-24T08:56:51;100478.41;;;6.82;56.06
21433;BME280;18592;49.708;10.900;2023-01-24T08:58:53;100482.63;;;6.84;56.10
21433;BME280;18592;49.708;10.900;2023-01-24T09:00:55;100486.00;;;6.86;55.91
21433;BME280;18592;49.708;10.900;2023-01-24T09:02:57;100489.38;;;6.88;56.01
21433;BME280;18592;49.708;10.900;2023-01-24T09:05:06;100489.22;;;6.90;55.90
21433;BME280;18592;49.708;10.900;2023-01-24T09:07:12;100490.06;;;6.90;55.90
21433;BME280;18592;49.708;10.900;2023-01-24T09:09:15;100481.94;;;6.90;55.79
21433;BME280;18592;49.708;10.900;2023-01-24T09:11:16;100489.88;;;6.92;56.04
21433;BME280;18592;49.708;10.900;2023-01-24T09:13:19;100496.13;;;6.92;55.89
21433;BME280;18592;49.708;10.900;2023-01-24T09:15:20;100494.94;;;6.95;56.02
21433;BME280;18592;49.708;10.900;2023-01-24T09:17:32;100495.78;;;6.95;56.04
21433;BME280;18592;49.708;10.900;2023-01-24T09:19:34;100500.16;;;6.96;55.92
21433;BME280;18592;49.708;10.900;2023-01-24T09:21:35;100496.59;;;6.96;55.82
21433;BME280;18592;49.708;10.900;2023-01-24T09:23:41;100501.00;;;6.97;55.73
21433;BME280;18592;49.708;10.900;2023-01-24T09:25:50;100501.38;;;6.94;56.06
21433;BME280;18592;49.708;10.900;2023-01-24T09:27:55;100498.50;;;6.95;56.01
21433;BME280;18592;49.708;10.900;2023-01-24T09:30:00;100492.69;;;6.98;56.19
21433;BME280;18592;49.708;10.900;2023-01-24T09:32:02;100499.63;;;7.01;55.84
21433;BME280;18592;49.708;10.900;2023-01-24T09:34:04;100492.16;;;7.03;55.71
21433;BME280;18592;49.708;10.900;2023-01-24T09:36:06;100501.31;;;7.02;56.12
21433;BME280;18592;49.708;10.900;2023-01-24T09:38:09;100500.47;;;7.01;56.06
21433;BME280;18592;49.708;10.900;2023-01-24T09:40:26;100501.66;;;6.99;56.21
21433;BME280;18592;49.708;10.900;2023-01-24T09:42:40;100496.09;;;7.00;56.18
21433;BME280;18592;49.708;10.900;2023-01-24T09:44:46;100502.16;;;7.02;56.12
21433;BME280;18592;49.708;10.900;2023-01-24T09:46:52;100502.63;;;7.06;56.11
21433;BME280;18592;49.708;10.900;2023-01-24T09:49:17;100511.44;;;7.08;55.99
21433;BME280;18592;49.708;10.900;2023-01-24T09:51:26;100504.97;;;7.09;55.93
21433;BME280;18592;49.708;10.900;2023-01-24T09:53:51;100511.25;;;7.10;56.20
21433;BME280;18592;49.708;10.900;2023-01-24T09:55:56;100512.97;;;7.11;56.08
21433;BME280;18592;49.708;10.900;2023-01-24T09:58:05;100514.47;;;7.13;56.10
21433;BME280;18592;49.708;10.900;2023-01-24T10:00:17;100509.03;;;7.13;55.98
21433;BME280;18592;49.708;10.900;2023-01-24T10:02:22;100499.84;;;7.14;56.07
21433;BME280;18592;49.708;10.900;2023-01-24T10:04:35;100506.97;;;7.15;56.32
21433;BME280;18592;49.708;10.900;2023-01-24T10:06:38;100505.94;;;7.16;56.05
21433;BME280;18592;49.708;10.900;2023-01-24T10:14:15;100496.97;;;7.16;56.07
21433;BME280;18592;49.708;10.900;2023-01-24T10:16:55;100501.56;;;7.15;56.14
21433;BME280;18592;49.708;10.900;2023-01-24T10:23:43;100494.94;;;7.18;56.13
21433;BME280;18592;49.708;10.900;2023-01-24T10:25:58;100495.78;;;7.18;56.08
21433;BME280;18592;49.708;10.900;2023-01-24T10:28:03;100498.66;;;7.17;56.21
21433;BME280;18592;49.708;10.900;2023-01-24T10:30:17;100497.63;;;7.18;56.10
21433;BME280;18592;49.708;10.900;2023-01-24T10:32:32;100496.97;;;7.16;56.12
21433;BME280;18592;49.708;10.900;2023-01-24T10:34:43;100493.88;;;7.19;56.12
21433;BME280;18592;49.708;10.900;2023-01-24T10:36:51;100492.88;;;7.20;56.01
21433;BME280;18592;49.708;10.900;2023-01-24T10:38:55;100491.84;;;7.21;56.21
21433;BME280;18592;49.708;10.900;2023-01-24T10:41:14;100500.00;;;7.21;56.21
21433;BME280;18592;49.708;10.900;2023-01-24T10:43:16;100497.09;;;7.22;56.22
21433;BME280;18592;49.708;10.900;2023-01-24T10:47:44;100497.59;;;7.26;56.06
21433;BME280;18592;49.708;10.900;2023-01-24T10:49:58;100490.81;;;7.22;56.17
21433;BME280;18592;49.708;10.900;2023-01-24T10:52:14;100484.19;;;7.24;56.04
21433;BME280;18592;49.708;10.900;2023-01-24T10:54:20;100474.19;;;7.25;56.21
21433;BME280;18592;49.708;10.900;2023-01-24T10:56:28;100470.47;;;7.26;56.06
21433;BME280;18592;49.708;10.900;2023-01-24T10:58:42;100478.19;;;7.29;56.17
21433;BME280;18592;49.708;10.900;2023-01-24T11:00:44;100471.75;;;7.30;56.05
21433;BME280;18592;49.708;10.900;2023-01-24T11:02:49;100465.50;;;7.29;56.19
21433;BME280;18592;49.708;10.900;2023-01-24T11:05:04;100475.69;;;7.27;56.13
21433;BME280;18592;49.708;10.900;2023-01-24T11:07:06;100471.75;;;7.30;56.00
21433;BME280;18592;49.708;10.900;2023-01-24T11:09:12;100466.34;;;7.30;56.33
21433;BME280;18592;49.708;10.900;2023-01-24T11:11:22;100470.56;;;7.32;56.20
21433;BME280;18592;49.708;10.900;2023-01-24T11:13:37;100473.06;;;7.34;56.17
21433;BME280;18592;49.708;10.900;2023-01-24T11:15:47;100465.13;;;7.32;56.07
21433;BME280;18592;49.708;10.900;2023-01-24T11:17:55;100464.78;;;7.35;55.96
21433;BME280;18592;49.708;10.900;2023-01-24T11:19:58;100460.84;;;7.38;55.87
21433;BME280;18592;49.708;10.900;2023-01-24T11:22:24;100453.06;;;7.35;55.94
21433;BME280;18592;49.708;10.900;2023-01-24T11:24:27;100457.47;;;7.36;56.21
21433;BME280;18592;49.708;10.900;2023-01-24T11:26:32;100457.47;;;7.36;56.05